createdAt,value
2023-03-22T00:02:12.478Z,47.00
2023-03-22T00:04:38.987Z,47.50
2023-03-22T00:07:05.537Z,43.90
2023-03-22T00:09:32.015Z,44.20
2023-03-22T00:11:58.466Z,46.80
2023-03-22T00:14:25.012Z,43.40
2023-03-22T00:16:51.537Z,46.30
2023-03-22T00:19:18.034Z,45.10
2023-03-22T00:21:45.600Z,45.10
2023-03-22T00:24:12.087Z,41.90
2023-03-22T00:26:38.517Z,44.50
2023-03-22T00:29:05.625Z,42.90
2023-03-22T00:31:32.119Z,44.60
2023-03-22T00:33:58.749Z,45.60
2023-03-22T00:36:25.247Z,46.00
2023-03-22T00:38:51.934Z,45.50
2023-03-22T00:41:21.411Z,46.40
2023-03-22T00:43:49.183Z,45.30
2023-03-22T00:46:17.450Z,44.70
2023-03-22T00:48:44.493Z,48.80
2023-03-22T00:51:11.775Z,39.40
2023-03-22T00:53:42.586Z,36.90
2023-03-22T00:56:13.101Z,35.40
2023-03-22T01:01:20.619Z,27.90
2023-03-22T01:03:49.975Z,29.60
2023-03-22T01:06:17.306Z,30.00
2023-03-22T01:08:45.302Z,28.80
2023-03-22T01:11:12.219Z,27.50
2023-03-22T01:13:38.797Z,26.70
2023-03-22T01:16:06.566Z,25.20
2023-03-22T01:18:34.273Z,25.90
2023-03-22T01:21:01.668Z,24.60
2023-03-22T01:23:28.292Z,24.00
2023-03-22T01:25:54.933Z,24.20
2023-03-22T01:28:21.583Z,24.70
2023-03-22T01:30:48.353Z,24.20
2023-03-22T01:33:15.036Z,25.30
2023-03-22T01:35:41.550Z,24.70
2023-03-22T01:38:08.350Z,24.10
2023-03-22T01:40:38.799Z,24.60
2023-03-22T01:43:13.259Z,25.70
2023-03-22T01:45:45.017Z,25.00
2023-03-22T01:48:15.016Z,25.90
2023-03-22T01:50:48.959Z,25.80
2023-03-22T01:53:18.390Z,25.30
2023-03-22T01:55:46.437Z,24.20
2023-03-22T01:58:22.647Z,24.30
2023-03-22T02:00:53.644Z,25.10
2023-03-22T02:03:37.199Z,25.10
2023-03-22T02:06:04.224Z,25.40
2023-03-22T02:08:32.344Z,26.70
2023-03-22T02:11:02.809Z,26.80
2023-03-22T02:14:09.630Z,26.50
2023-03-22T02:17:19.141Z,27.70
2023-03-22T02:20:38.062Z,26.00
2023-03-22T02:23:23.354Z,29.20
2023-03-22T02:26:38.630Z,27.40
2023-03-22T02:29:38.950Z,29.40
2023-03-22T02:32:22.790Z,29.60
2023-03-22T02:35:18.080Z,29.20
2023-03-22T02:38:04.746Z,30.20
2023-03-22T02:40:41.818Z,31.80
2023-03-22T02:43:37.722Z,28.40
2023-03-22T02:46:11.246Z,30.40
2023-03-22T02:48:45.294Z,29.30
2023-03-22T02:51:21.707Z,29.60
2023-03-22T02:54:04.040Z,28.90
2023-03-22T02:56:38.611Z,29.90
2023-03-22T02:59:11.301Z,29.30
2023-03-22T03:01:44.840Z,29.80
2023-03-22T03:06:51.122Z,29.10
2023-03-22T03:09:20.358Z,29.60
2023-03-22T03:11:48.969Z,28.40
2023-03-22T03:14:34.024Z,28.90
2023-03-22T03:17:38.140Z,30.20
2023-03-22T03:20:07.489Z,27.50
2023-03-22T03:22:48.965Z,28.10
2023-03-22T03:25:31.023Z,29.90
2023-03-22T03:28:22.411Z,29.90
2023-03-22T03:31:13.745Z,29.60
2023-03-22T03:33:56.188Z,30.00
2023-03-22T03:36:25.465Z,30.80
2023-03-22T03:38:55.011Z,29.60
2023-03-22T03:41:28.304Z,33.20
2023-03-22T03:43:57.574Z,28.50
2023-03-22T03:46:24.579Z,29.90
2023-03-22T03:48:52.483Z,28.70
2023-03-22T03:51:19.045Z,27.90
2023-03-22T03:53:46.452Z,28.10
2023-03-22T03:56:13.850Z,28.40
2023-03-22T03:58:43.771Z,28.40
2023-03-22T04:01:10.597Z,30.40
2023-03-22T04:03:55.776Z,28.90
2023-03-22T04:06:41.040Z,30.20
2023-03-22T04:09:16.498Z,29.90
2023-03-22T04:11:45.880Z,30.30
2023-03-22T04:14:13.944Z,29.00
2023-03-22T04:16:41.097Z,32.10
2023-03-22T04:19:11.075Z,30.90
2023-03-22T04:21:37.724Z,32.50
2023-03-22T04:24:04.424Z,32.70
2023-03-22T04:26:35.065Z,31.40
2023-03-22T04:29:11.111Z,32.00
2023-03-22T04:31:41.253Z,31.60
2023-03-22T04:34:17.838Z,35.70
2023-03-22T04:36:50.710Z,31.90
2023-03-22T04:42:11.285Z,31.50
2023-03-22T04:44:38.780Z,33.60
2023-03-22T04:47:05.345Z,33.30
2023-03-22T04:49:32.280Z,38.10
2023-03-22T04:51:58.968Z,48.50
2023-03-22T04:54:30.377Z,49.10
2023-03-22T04:56:57.157Z,48.70
2023-03-22T04:59:24.012Z,39.60
2023-03-22T05:01:50.852Z,54.90
2023-03-22T05:04:20.182Z,41.90
2023-03-22T05:06:47.836Z,41.80
2023-03-22T05:09:23.253Z,45.80
2023-03-22T05:11:51.336Z,43.40
2023-03-22T05:14:27.846Z,44.60
2023-03-22T05:16:54.462Z,45.30
2023-03-22T05:19:21.569Z,44.90
2023-03-22T05:21:57.101Z,51.60
2023-03-22T05:24:25.683Z,48.80
2023-03-22T05:26:53.197Z,49.30
2023-03-22T05:29:21.922Z,50.90
2023-03-22T05:32:04.403Z,49.40
2023-03-22T05:34:34.932Z,49.30
2023-03-22T05:37:06.416Z,49.10
2023-03-22T05:39:54.560Z,48.40
2023-03-22T05:42:25.418Z,47.50
2023-03-22T05:44:51.957Z,48.80
2023-03-22T05:47:19.733Z,42.00
2023-03-22T05:50:02.540Z,43.80
2023-03-22T05:52:29.692Z,46.30
2023-03-22T05:55:22.650Z,41.30
2023-03-22T05:57:54.063Z,41.70
2023-03-22T06:00:21.093Z,40.10
2023-03-22T06:03:11.758Z,39.40
2023-03-22T06:05:42.056Z,38.40
2023-03-22T06:08:08.914Z,35.70
2023-03-22T06:10:35.466Z,32.10
2023-03-22T06:13:02.143Z,31.30
2023-03-22T06:15:31.441Z,29.30
2023-03-22T06:18:24.099Z,22.60
2023-03-22T06:20:57.747Z,23.90
2023-03-22T06:23:24.578Z,23.00
2023-03-22T06:25:51.587Z,21.90
2023-03-22T06:28:18.102Z,26.20
2023-03-22T06:30:53.418Z,23.80
2023-03-22T06:33:22.567Z,22.70
2023-03-22T06:35:53.995Z,21.10
2023-03-22T06:38:28.385Z,22.70
2023-03-22T06:40:55.367Z,25.20
2023-03-22T06:43:22.074Z,26.60
2023-03-22T06:45:49.558Z,31.50
2023-03-22T06:48:20.557Z,31.60
2023-03-22T06:51:13.383Z,34.40
2023-03-22T06:53:39.969Z,31.20
2023-03-22T06:56:06.891Z,30.10
2023-03-22T06:58:43.549Z,30.70
2023-03-22T07:01:10.058Z,27.70
2023-03-22T07:03:36.588Z,28.60
2023-03-22T07:06:08.063Z,29.00
2023-03-22T07:08:37.620Z,24.90
2023-03-22T07:11:06.074Z,27.90
2023-03-22T07:13:33.529Z,26.90
2023-03-22T07:16:03.045Z,23.30
2023-03-22T07:18:37.619Z,23.90
2023-03-22T07:21:04.671Z,26.30
2023-03-22T07:23:31.976Z,22.70
2023-03-22T07:26:04.154Z,27.10
2023-03-22T07:28:32.935Z,29.40
2023-03-22T07:31:05.963Z,24.10
2023-03-22T07:33:53.080Z,21.80
2023-03-22T07:36:23.163Z,19.90
2023-03-22T07:38:50.793Z,21.10
2023-03-22T07:41:23.412Z,25.10
2023-03-22T07:44:04.960Z,32.10
2023-03-22T07:46:43.650Z,24.80
2023-03-22T07:49:20.673Z,22.50
2023-03-22T07:52:02.381Z,20.00
2023-03-22T07:54:33.741Z,21.50
2023-03-22T07:57:01.546Z,18.90
2023-03-22T07:59:28.122Z,18.70
2023-03-22T08:01:54.854Z,17.30
2023-03-22T08:04:27.635Z,19.10
2023-03-22T08:07:10.884Z,23.20
2023-03-22T08:09:37.609Z,18.80
2023-03-22T08:12:04.697Z,20.60
2023-03-22T08:14:36.830Z,26.50
2023-03-22T08:17:06.024Z,18.70
2023-03-22T08:19:33.805Z,18.80
2023-03-22T08:22:00.517Z,16.90
2023-03-22T08:24:46.996Z,16.50
2023-03-22T08:27:23.896Z,20.50
2023-03-22T08:29:50.934Z,18.40
2023-03-22T08:32:17.577Z,15.30
2023-03-22T08:34:44.147Z,16.50
2023-03-22T08:37:11.972Z,17.00
2023-03-22T08:39:39.281Z,31.90
2023-03-22T08:42:35.712Z,28.20
2023-03-22T08:45:03.345Z,18.50
2023-03-22T08:47:30.861Z,17.30
2023-03-22T08:49:59.838Z,17.70
2023-03-22T08:52:43.720Z,21.10
2023-03-22T08:55:24.163Z,14.50
2023-03-22T08:58:19.276Z,16.80
2023-03-22T09:00:54.182Z,15.50
2023-03-22T09:03:39.086Z,28.20
2023-03-22T09:06:06.348Z,16.10
2023-03-22T09:08:37.543Z,14.80
2023-03-22T09:11:11.769Z,15.80
2023-03-22T09:13:38.564Z,16.20
2023-03-22T09:16:08.173Z,18.10
2023-03-22T09:18:36.122Z,41.00
2023-03-22T09:21:09.590Z,15.30
2023-03-22T09:23:46.876Z,16.80
2023-03-22T09:26:14.365Z,14.60
2023-03-22T09:28:41.241Z,16.80
2023-03-22T09:31:09.744Z,13.10
2023-03-22T09:33:38.008Z,12.50
2023-03-22T09:36:05.161Z,13.20
2023-03-22T09:38:33.099Z,14.90
2023-03-22T09:41:06.695Z,11.40
2023-03-22T09:43:43.195Z,9.90
2023-03-22T09:46:29.792Z,9.00
2023-03-22T09:48:59.341Z,8.70
2023-03-22T09:51:37.273Z,9.80
2023-03-22T09:54:11.827Z,28.50
2023-03-22T09:56:39.552Z,11.90
2023-03-22T09:59:21.260Z,7.20
2023-03-22T10:01:58.902Z,12.40
2023-03-22T10:04:50.280Z,12.50
2023-03-22T10:07:38.211Z,8.80
2023-03-22T10:10:18.140Z,7.50
2023-03-22T10:13:19.166Z,7.50
2023-03-22T10:15:47.308Z,7.90
2023-03-22T10:18:29.451Z,9.20
2023-03-22T10:21:02.912Z,9.30
2023-03-22T10:23:35.318Z,11.30
2023-03-22T10:26:04.398Z,10.00
2023-03-22T10:28:38.059Z,8.90
2023-03-22T10:31:06.288Z,9.60
2023-03-22T10:33:49.762Z,14.20
2023-03-22T10:36:20.189Z,8.90
2023-03-22T10:38:52.231Z,7.70
2023-03-22T10:41:22.638Z,9.90
2023-03-22T10:43:56.604Z,12.20
2023-03-22T10:46:26.743Z,12.90
2023-03-22T10:48:58.538Z,9.00
2023-03-22T10:51:47.013Z,10.60
2023-03-22T10:54:16.371Z,8.20
2023-03-22T10:56:44.368Z,11.50
2023-03-22T10:59:50.376Z,8.50
2023-03-22T11:02:29.180Z,9.50
2023-03-22T11:05:02.259Z,7.60
2023-03-22T11:07:39.354Z,7.60
2023-03-22T11:10:08.947Z,9.30
2023-03-22T11:12:39.923Z,6.60
2023-03-22T11:15:18.393Z,5.00
2023-03-22T11:17:44.900Z,3.30
2023-03-22T11:20:18.606Z,2.60
2023-03-22T11:22:47.432Z,5.20
2023-03-22T11:25:19.833Z,2.40
2023-03-22T11:27:53.269Z,4.00
2023-03-22T11:32:52.306Z,4.60
2023-03-22T11:35:26.344Z,5.10
2023-03-22T11:37:54.907Z,5.40
2023-03-22T11:40:28.601Z,3.60
2023-03-22T11:43:05.982Z,1.30
2023-03-22T11:45:36.084Z,7.90
2023-03-22T11:48:09.274Z,5.80
2023-03-22T11:50:39.389Z,9.70
2023-03-22T11:53:10.664Z,2.90
2023-03-22T11:55:37.524Z,2.10
2023-03-22T11:58:05.073Z,1.90
2023-03-22T12:00:36.948Z,3.70
2023-03-22T12:03:08.819Z,7.20
2023-03-22T12:05:40.772Z,1.90
2023-03-22T12:08:37.286Z,7.10
2023-03-22T12:11:11.457Z,4.20
2023-03-22T12:13:44.265Z,1.60
2023-03-22T12:16:14.146Z,2.50
2023-03-22T12:18:51.045Z,2.20
2023-03-22T12:21:17.655Z,2.90
2023-03-22T12:23:44.133Z,3.90
2023-03-22T12:26:25.754Z,2.60
2023-03-22T12:29:01.170Z,3.80
2023-03-22T12:31:32.126Z,3.20
2023-03-22T12:34:08.031Z,5.70
2023-03-22T12:36:41.103Z,3.60
2023-03-22T12:39:23.689Z,2.70
2023-03-22T12:41:53.339Z,9.40
2023-03-22T12:44:37.424Z,9.60
2023-03-22T12:47:30.545Z,5.80
2023-03-22T12:50:13.697Z,3.00
2023-03-22T12:52:47.619Z,10.10
2023-03-22T12:55:25.395Z,2.90
2023-03-22T12:57:53.913Z,9.20
2023-03-22T13:00:44.413Z,8.20
2023-03-22T13:03:17.249Z,8.30
2023-03-22T13:05:45.814Z,11.20
2023-03-22T13:08:12.763Z,7.80
2023-03-22T13:10:56.778Z,3.90
2023-03-22T13:13:23.478Z,4.10
2023-03-22T13:16:01.846Z,7.10
2023-03-22T13:18:31.788Z,7.60
2023-03-22T13:21:28.627Z,2.50
2023-03-22T13:23:57.086Z,2.60
2023-03-22T13:26:34.378Z,2.30
2023-03-22T13:29:10.306Z,9.00
2023-03-22T13:31:52.854Z,6.90
2023-03-22T13:34:31.763Z,10.20
2023-03-22T13:37:00.920Z,13.30
2023-03-22T13:39:33.850Z,4.60
2023-03-22T13:42:05.297Z,5.00
2023-03-22T13:44:43.202Z,8.00
2023-03-22T13:47:33.343Z,6.00
2023-03-22T13:50:15.343Z,5.80
2023-03-22T13:52:52.187Z,5.90
2023-03-22T13:55:48.167Z,9.00
2023-03-22T13:58:35.402Z,7.10
2023-03-22T14:01:15.006Z,8.30
2023-03-22T14:03:45.785Z,16.50
2023-03-22T14:06:21.702Z,8.50
2023-03-22T14:08:53.895Z,17.40
2023-03-22T14:11:28.128Z,13.00
2023-03-22T14:14:03.487Z,9.60
2023-03-22T14:16:39.748Z,8.10
2023-03-22T14:19:13.679Z,5.90
2023-03-22T14:21:43.784Z,3.80
